sensor_id;sensor_type;location;lat;lon;timestamp;temperature;humidity
4615;DHT22;2320;51.362;6.946;2022-12-15T00:01:41;-5.90;99.90
4615;DHT22;2320;51.362;6.946;2022-12-15T00:04:25;-6.00;99.90
4615;DHT22;2320;51.362;6.946;2022-12-15T00:07:09;-6.10;99.90
4615;DHT22;2320;51.362;6.946;2022-12-15T00:09:53;-6.10;99.90
4615;DHT22;2320;51.362;6.946;2022-12-15T00:12:37;-6.20;99.90
4615;DHT22;2320;51.362;6.946;2022-12-15T00:15:22;-6.20;99.90
4615;DHT22;2320;51.362;6.946;2022-12-15T00:18:06;-6.20;99.90
4615;DHT22;2320;51.362;6.946;2022-12-15T00:20:50;-6.20;99.90
4615;DHT22;2320;51.362;6.946;2022-12-15T00:23:34;-6.30;99.90
4615;DHT22;2320;51.362;6.946;2022-12-15T00:26:19;-6.40;99.90
4615;DHT22;2320;51.362;6.946;2022-12-15T00:29:03;-6.10;99.90
4615;DHT22;2320;51.362;6.946;2022-12-15T00:31:47;-6.00;99.90
4615;DHT22;2320;51.362;6.946;2022-12-15T00:34:31;-6.00;99.90
4615;DHT22;2320;51.362;6.946;2022-12-15T00:37:16;-6.20;99.90
4615;DHT22;2320;51.362;6.946;2022-12-15T00:40:00;-6.30;99.90
4615;DHT22;2320;51.362;6.946;2022-12-15T00:42:29;-6.30;99.90
4615;DHT22;2320;51.362;6.946;2022-12-15T00:44:56;-6.30;99.90
4615;DHT22;2320;51.362;6.946;2022-12-15T00:47:22;-6.40;99.90
4615;DHT22;2320;51.362;6.946;2022-12-15T00:49:48;-6.40;99.90
4615;DHT22;2320;51.362;6.946;2022-12-15T00:52:32;-6.40;99.90
4615;DHT22;2320;51.362;6.946;2022-12-15T00:55:16;-6.40;99.90
4615;DHT22;2320;51.362;6.946;2022-12-15T00:58:00;-6.50;99.90
4615;DHT22;2320;51.362;6.946;2022-12-15T01:00:45;-6.40;99.90
4615;DHT22;2320;51.362;6.946;2022-12-15T01:03:29;-6.50;99.90
4615;DHT22;2320;51.362;6.946;2022-12-15T01:06:14;-6.40;99.90
4615;DHT22;2320;51.362;6.946;2022-12-15T01:08:58;-6.20;99.90
4615;DHT22;2320;51.362;6.946;2022-12-15T01:11:43;-6.20;99.90
4615;DHT22;2320;51.362;6.946;2022-12-15T01:14:27;-6.20;99.90
4615;DHT22;2320;51.362;6.946;2022-12-15T01:17:11;-6.30;99.90
4615;DHT22;2320;51.362;6.946;2022-12-15T01:19:56;-6.40;99.90
4615;DHT22;2320;51.362;6.946;2022-12-15T01:22:40;-6.10;99.90
4615;DHT22;2320;51.362;6.946;2022-12-15T01:25:06;-6.00;99.90
4615;DHT22;2320;51.362;6.946;2022-12-15T01:27:32;-6.10;99.90
4615;DHT22;2320;51.362;6.946;2022-12-15T01:29:58;-6.10;99.90
4615;DHT22;2320;51.362;6.946;2022-12-15T01:32:23;-6.20;99.90
4615;DHT22;2320;51.362;6.946;2022-12-15T01:34:49;-6.20;99.90
4615;DHT22;2320;51.362;6.946;2022-12-15T01:37:14;-6.30;99.90
4615;DHT22;2320;51.362;6.946;2022-12-15T01:39:40;-6.20;99.90
4615;DHT22;2320;51.362;6.946;2022-12-15T01:42:24;-6.20;99.90
4615;DHT22;2320;51.362;6.946;2022-12-15T01:44:51;-6.10;99.90
4615;DHT22;2320;51.362;6.946;2022-12-15T01:47:17;-6.00;99.90
4615;DHT22;2320;51.362;6.946;2022-12-15T01:49:43;-6.10;99.90
4615;DHT22;2320;51.362;6.946;2022-12-15T01:52:12;-6.10;99.90
4615;DHT22;2320;51.362;6.946;2022-12-15T01:54:42;-6.00;99.90
4615;DHT22;2320;51.362;6.946;2022-12-15T01:57:14;-6.10;99.90
4615;DHT22;2320;51.362;6.946;2022-12-15T01:59:50;-6.00;99.90
4615;DHT22;2320;51.362;6.946;2022-12-15T02:02:17;-6.10;99.90
4615;DHT22;2320;51.362;6.946;2022-12-15T02:04:43;-6.10;99.90
4615;DHT22;2320;51.362;6.946;2022-12-15T02:07:15;-6.00;99.90
4615;DHT22;2320;51.362;6.946;2022-12-15T02:09:41;-6.00;99.90
4615;DHT22;2320;51.362;6.946;2022-12-15T02:12:16;-6.00;99.90
4615;DHT22;2320;51.362;6.946;2022-12-15T02:17:32;-6.00;99.90
4615;DHT22;2320;51.362;6.946;2022-12-15T02:22:50;-5.90;99.90
4615;DHT22;2320;51.362;6.946;2022-12-15T02:27:54;-5.80;99.90
4615;DHT22;2320;51.362;6.946;2022-12-15T02:30:22;-6.00;99.90
4615;DHT22;2320;51.362;6.946;2022-12-15T02:32:57;-6.00;99.90
4615;DHT22;2320;51.362;6.946;2022-12-15T02:35:31;-5.90;99.90
4615;DHT22;2320;51.362;6.946;2022-12-15T02:37:57;-5.70;99.90
4615;DHT22;2320;51.362;6.946;2022-12-15T02:40:22;-5.80;99.90
4615;DHT22;2320;51.362;6.946;2022-12-15T02:42:50;-5.70;99.90
4615;DHT22;2320;51.362;6.946;2022-12-15T02:45:18;-5.60;99.90
4615;DHT22;2320;51.362;6.946;2022-12-15T02:50:18;-5.70;99.90
4615;DHT22;2320;51.362;6.946;2022-12-15T02:58:11;-5.80;99.90
4615;DHT22;2320;51.362;6.946;2022-12-15T03:00:39;-5.60;99.90
4615;DHT22;2320;51.362;6.946;2022-12-15T03:03:07;-5.70;99.90
4615;DHT22;2320;51.362;6.946;2022-12-15T03:05:33;-5.40;99.90
4615;DHT22;2320;51.362;6.946;2022-12-15T03:07:58;-5.60;99.90
4615;DHT22;2320;51.362;6.946;2022-12-15T03:10:25;-5.70;99.90
4615;DHT22;2320;51.362;6.946;2022-12-15T03:12:51;-5.80;99.90
4615;DHT22;2320;51.362;6.946;2022-12-15T03:15:17;-5.70;99.90
4615;DHT22;2320;51.362;6.946;2022-12-15T03:17:42;-5.70;99.90
4615;DHT22;2320;51.362;6.946;2022-12-15T03:20:08;-5.80;99.90
4615;DHT22;2320;51.362;6.946;2022-12-15T03:22:35;-5.70;99.90
4615;DHT22;2320;51.362;6.946;2022-12-15T03:25:00;-5.50;99.90
4615;DHT22;2320;51.362;6.946;2022-12-15T03:27:25;-5.60;99.90
4615;DHT22;2320;51.362;6.946;2022-12-15T03:29:51;-5.40;99.90
4615;DHT22;2320;51.362;6.946;2022-12-15T03:32:16;-5.60;99.90
4615;DHT22;2320;51.362;6.946;2022-12-15T03:34:42;-5.70;99.90
4615;DHT22;2320;51.362;6.946;2022-12-15T03:37:07;-5.70;99.90
4615;DHT22;2320;51.362;6.946;2022-12-15T03:39:33;-5.70;99.90
4615;DHT22;2320;51.362;6.946;2022-12-15T03:41:58;-5.80;99.90
4615;DHT22;2320;51.362;6.946;2022-12-15T03:44:24;-5.80;99.90
4615;DHT22;2320;51.362;6.946;2022-12-15T03:46:50;-5.60;99.90
4615;DHT22;2320;51.362;6.946;2022-12-15T03:49:15;-5.40;99.90
4615;DHT22;2320;51.362;6.946;2022-12-15T03:51:40;-5.30;99.90
4615;DHT22;2320;51.362;6.946;2022-12-15T03:54:06;-5.40;99.90
4615;DHT22;2320;51.362;6.946;2022-12-15T03:56:32;-5.50;99.90
4615;DHT22;2320;51.362;6.946;2022-12-15T03:58:57;-5.50;99.90
4615;DHT22;2320;51.362;6.946;2022-12-15T04:01:27;-5.40;99.90
4615;DHT22;2320;51.362;6.946;2022-12-15T04:03:54;-5.40;99.90
4615;DHT22;2320;51.362;6.946;2022-12-15T04:06:19;-5.20;99.90
4615;DHT22;2320;51.362;6.946;2022-12-15T04:08:45;-5.10;99.90
4615;DHT22;2320;51.362;6.946;2022-12-15T04:11:10;-5.30;99.90
4615;DHT22;2320;51.362;6.946;2022-12-15T04:13:36;-5.30;99.90
4615;DHT22;2320;51.362;6.946;2022-12-15T04:16:01;-5.30;99.90
4615;DHT22;2320;51.362;6.946;2022-12-15T04:18:27;-5.10;99.90
4615;DHT22;2320;51.362;6.946;2022-12-15T04:20:53;-5.10;99.90
4615;DHT22;2320;51.362;6.946;2022-12-15T04:23:19;-5.30;99.90
4615;DHT22;2320;51.362;6.946;2022-12-15T04:25:44;-5.30;99.90
4615;DHT22;2320;51.362;6.946;2022-12-15T04:28:28;-5.20;99.90
4615;DHT22;2320;51.362;6.946;2022-12-15T04:31:13;-5.20;99.90
4615;DHT22;2320;51.362;6.946;2022-12-15T04:34:03;-5.30;99.90
4615;DHT22;2320;51.362;6.946;2022-12-15T04:36:48;-5.30;99.90
4615;DHT22;2320;51.362;6.946;2022-12-15T04:39:34;-5.20;99.90
4615;DHT22;2320;51.362;6.946;2022-12-15T04:42:19;-5.00;99.90
4615;DHT22;2320;51.362;6.946;2022-12-15T04:45:03;-5.00;99.90
4615;DHT22;2320;51.362;6.946;2022-12-15T04:47:48;-5.00;99.90
4615;DHT22;2320;51.362;6.946;2022-12-15T04:50:33;-5.00;99.90
4615;DHT22;2320;51.362;6.946;2022-12-15T04:53:17;-4.90;99.90
4615;DHT22;2320;51.362;6.946;2022-12-15T04:56:01;-4.90;99.90
4615;DHT22;2320;51.362;6.946;2022-12-15T04:58:45;-5.10;99.90
4615;DHT22;2320;51.362;6.946;2022-12-15T05:01:30;-5.20;99.90
4615;DHT22;2320;51.362;6.946;2022-12-15T05:04:14;-5.10;99.90
4615;DHT22;2320;51.362;6.946;2022-12-15T05:06:58;-4.90;99.90
4615;DHT22;2320;51.362;6.946;2022-12-15T05:09:42;-4.80;99.90
4615;DHT22;2320;51.362;6.946;2022-12-15T05:12:26;-4.80;99.90
4615;DHT22;2320;51.362;6.946;2022-12-15T05:15:10;-4.80;99.90
4615;DHT22;2320;51.362;6.946;2022-12-15T05:17:55;-4.90;99.90
4615;DHT22;2320;51.362;6.946;2022-12-15T05:20:39;-5.00;99.90
4615;DHT22;2320;51.362;6.946;2022-12-15T05:23:23;-5.00;99.90
4615;DHT22;2320;51.362;6.946;2022-12-15T05:26:07;-5.10;99.90
4615;DHT22;2320;51.362;6.946;2022-12-15T05:28:52;-5.20;99.90
4615;DHT22;2320;51.362;6.946;2022-12-15T05:31:35;-5.10;99.90
4615;DHT22;2320;51.362;6.946;2022-12-15T05:34:20;-5.20;99.90
4615;DHT22;2320;51.362;6.946;2022-12-15T05:36:45;-5.10;99.90
4615;DHT22;2320;51.362;6.946;2022-12-15T05:39:11;-5.00;99.90
4615;DHT22;2320;51.362;6.946;2022-12-15T05:41:36;-4.80;99.90
4615;DHT22;2320;51.362;6.946;2022-12-15T05:44:02;-5.00;99.90
4615;DHT22;2320;51.362;6.946;2022-12-15T05:46:27;-5.00;99.90
4615;DHT22;2320;51.362;6.946;2022-12-15T05:48:53;-5.00;99.90
4615;DHT22;2320;51.362;6.946;2022-12-15T05:51:18;-5.00;99.90
4615;DHT22;2320;51.362;6.946;2022-12-15T05:53:44;-5.00;99.90
4615;DHT22;2320;51.362;6.946;2022-12-15T05:56:10;-5.00;99.90
4615;DHT22;2320;51.362;6.946;2022-12-15T05:58:36;-4.90;99.90
4615;DHT22;2320;51.362;6.946;2022-12-15T06:01:09;-5.00;99.90
4615;DHT22;2320;51.362;6.946;2022-12-15T06:03:38;-5.20;99.90
4615;DHT22;2320;51.362;6.946;2022-12-15T06:06:05;-5.10;99.90
4615;DHT22;2320;51.362;6.946;2022-12-15T06:08:32;-4.90;99.90
4615;DHT22;2320;51.362;6.946;2022-12-15T06:10:57;-4.90;99.90
4615;DHT22;2320;51.362;6.946;2022-12-15T06:13:23;-5.00;99.90
4615;DHT22;2320;51.362;6.946;2022-12-15T06:15:55;-4.90;99.90
4615;DHT22;2320;51.362;6.946;2022-12-15T06:18:21;-4.90;99.90
4615;DHT22;2320;51.362;6.946;2022-12-15T06:20:46;-5.00;99.90
4615;DHT22;2320;51.362;6.946;2022-12-15T06:23:12;-5.10;99.90
4615;DHT22;2320;51.362;6.946;2022-12-15T06:25:37;-5.10;99.90
4615;DHT22;2320;51.362;6.946;2022-12-15T06:28:03;-5.10;99.90
4615;DHT22;2320;51.362;6.946;2022-12-15T06:30:28;-5.30;99.90
4615;DHT22;2320;51.362;6.946;2022-12-15T06:32:54;-5.30;99.90
4615;DHT22;2320;51.362;6.946;2022-12-15T06:35:20;-5.20;99.90
4615;DHT22;2320;51.362;6.946;2022-12-15T06:37:45;-5.20;99.90
4615;DHT22;2320;51.362;6.946;2022-12-15T06:40:11;-5.30;99.90
4615;DHT22;2320;51.362;6.946;2022-12-15T06:42:36;-5.30;99.90
4615;DHT22;2320;51.362;6.946;2022-12-15T06:45:02;-5.10;99.90
4615;DHT22;2320;51.362;6.946;2022-12-15T06:47:28;-5.10;99.90
4615;DHT22;2320;51.362;6.946;2022-12-15T06:49:53;-5.10;99.90
4615;DHT22;2320;51.362;6.946;2022-12-15T06:52:20;-5.20;99.90
4615;DHT22;2320;51.362;6.946;2022-12-15T06:54:45;-5.20;99.90
4615;DHT22;2320;51.362;6.946;2022-12-15T06:57:10;-5.20;99.90
4615;DHT22;2320;51.362;6.946;2022-12-15T06:59:36;-5.20;99.90
4615;DHT22;2320;51.362;6.946;2022-12-15T07:02:01;-5.30;99.90
4615;DHT22;2320;51.362;6.946;2022-12-15T07:04:27;-5.10;99.90
4615;DHT22;2320;51.362;6.946;2022-12-15T07:06:52;-5.20;99.90
4615;DHT22;2320;51.362;6.946;2022-12-15T07:09:18;-5.10;99.90
4615;DHT22;2320;51.362;6.946;2022-12-15T07:11:44;-5.10;99.90
4615;DHT22;2320;51.362;6.946;2022-12-15T07:14:10;-4.90;99.90
4615;DHT22;2320;51.362;6.946;2022-12-15T07:16:36;-4.80;99.90
4615;DHT22;2320;51.362;6.946;2022-12-15T07:19:01;-5.00;99.90
4615;DHT22;2320;51.362;6.946;2022-12-15T07:21:27;-5.10;99.90
4615;DHT22;2320;51.362;6.946;2022-12-15T07:23:52;-5.20;99.90
4615;DHT22;2320;51.362;6.946;2022-12-15T07:26:18;-5.10;99.90
4615;DHT22;2320;51.362;6.946;2022-12-15T07:28:43;-5.30;99.90
4615;DHT22;2320;51.362;6.946;2022-12-15T07:31:09;-5.20;99.90
4615;DHT22;2320;51.362;6.946;2022-12-15T07:33:36;-5.20;99.90
4615;DHT22;2320;51.362;6.946;2022-12-15T07:36:02;-5.10;99.90
4615;DHT22;2320;51.362;6.946;2022-12-15T07:38:27;-4.80;99.90
4615;DHT22;2320;51.362;6.946;2022-12-15T07:40:53;-4.80;99.90
4615;DHT22;2320;51.362;6.946;2022-12-15T07:43:19;-4.90;99.90
4615;DHT22;2320;51.362;6.946;2022-12-15T07:45:49;-4.80;99.90
4615;DHT22;2320;51.362;6.946;2022-12-15T07:48:15;-4.90;99.90
4615;DHT22;2320;51.362;6.946;2022-12-15T07:50:40;-4.80;99.90
4615;DHT22;2320;51.362;6.946;2022-12-15T07:53:06;-4.70;99.90
4615;DHT22;2320;51.362;6.946;2022-12-15T07:55:31;-4.60;99.90
4615;DHT22;2320;51.362;6.946;2022-12-15T07:57:57;-4.40;99.90
4615;DHT22;2320;51.362;6.946;2022-12-15T08:00:22;-4.40;99.90
4615;DHT22;2320;51.362;6.946;2022-12-15T08:02:48;-4.50;99.90
4615;DHT22;2320;51.362;6.946;2022-12-15T08:05:13;-4.50;99.90
4615;DHT22;2320;51.362;6.946;2022-12-15T08:07:39;-4.50;99.90
4615;DHT22;2320;51.362;6.946;2022-12-15T08:10:04;-4.20;99.90
4615;DHT22;2320;51.362;6.946;2022-12-15T08:12:30;-4.30;99.90
4615;DHT22;2320;51.362;6.946;2022-12-15T08:14:55;-4.20;99.90
4615;DHT22;2320;51.362;6.946;2022-12-15T08:17:21;-4.00;99.90
4615;DHT22;2320;51.362;6.946;2022-12-15T08:19:47;-4.00;99.90
4615;DHT22;2320;51.362;6.946;2022-12-15T08:22:12;-4.00;99.90
4615;DHT22;2320;51.362;6.946;2022-12-15T08:24:39;-4.00;99.90
4615;DHT22;2320;51.362;6.946;2022-12-15T08:27:05;-3.80;99.90
4615;DHT22;2320;51.362;6.946;2022-12-15T08:29:30;-3.70;99.90
4615;DHT22;2320;51.362;6.946;2022-12-15T08:31:56;-3.80;99.90
4615;DHT22;2320;51.362;6.946;2022-12-15T08:34:21;-3.50;99.90
4615;DHT22;2320;51.362;6.946;2022-12-15T08:36:47;-3.50;99.90
4615;DHT22;2320;51.362;6.946;2022-12-15T08:39:12;-3.40;99.90
4615;DHT22;2320;51.362;6.946;2022-12-15T08:41:38;-3.30;99.90
4615;DHT22;2320;51.362;6.946;2022-12-15T08:44:05;-3.20;99.90
4615;DHT22;2320;51.362;6.946;2022-12-15T08:46:31;-3.10;99.90
4615;DHT22;2320;51.362;6.946;2022-12-15T08:48:58;-3.00;99.90
4615;DHT22;2320;51.362;6.946;2022-12-15T08:51:23;-3.10;99.90
4615;DHT22;2320;51.362;6.946;2022-12-15T08:53:49;-2.70;99.90
4615;DHT22;2320;51.362;6.946;2022-12-15T08:56:16;-2.70;99.90
4615;DHT22;2320;51.362;6.946;2022-12-15T08:58:42;-2.50;99.90
4615;DHT22;2320;51.362;6.946;2022-12-15T09:01:12;-2.50;99.90
4615;DHT22;2320;51.362;6.946;2022-12-15T09:03:37;-2.30;99.90
4615;DHT22;2320;51.362;6.946;2022-12-15T09:06:04;-2.40;99.90
4615;DHT22;2320;51.362;6.946;2022-12-15T09:08:29;-2.20;99.90
4615;DHT22;2320;51.362;6.946;2022-12-15T09:10:58;-1.70;99.90
4615;DHT22;2320;51.362;6.946;2022-12-15T09:13:24;-1.50;99.90
4615;DHT22;2320;51.362;6.946;2022-12-15T09:15:59;-1.50;99.90
4615;DHT22;2320;51.362;6.946;2022-12-15T09:18:25;-1.40;99.90
4615;DHT22;2320;51.362;6.946;2022-12-15T09:20:51;-1.30;99.90
4615;DHT22;2320;51.362;6.946;2022-12-15T09:23:16;-1.30;99.90
4615;DHT22;2320;51.362;6.946;2022-12-15T09:25:42;-1.30;99.90
4615;DHT22;2320;51.362;6.946;2022-12-15T09:28:08;-1.30;99.90
4615;DHT22;2320;51.362;6.946;2022-12-15T09:30:34;-1.30;99.90
4615;DHT22;2320;51.362;6.946;2022-12-15T09:32:59;-1.30;99.90
4615;DHT22;2320;51.362;6.946;2022-12-15T09:35:26;-1.40;99.90
4615;DHT22;2320;51.362;6.946;2022-12-15T09:37:51;-1.40;99.90
4615;DHT22;2320;51.362;6.946;2022-12-15T09:40:18;-1.20;99.90
4615;DHT22;2320;51.362;6.946;2022-12-15T09:42:45;-1.00;99.90
4615;DHT22;2320;51.362;6.946;2022-12-15T09:45:16;-0.90;99.90
4615;DHT22;2320;51.362;6.946;2022-12-15T09:47:44;-0.90;99.90
4615;DHT22;2320;51.362;6.946;2022-12-15T09:50:13;-0.90;99.90
4615;DHT22;2320;51.362;6.946;2022-12-15T09:52:55;-0.90;99.90
4615;DHT22;2320;51.362;6.946;2022-12-15T09:55:23;-0.80;99.90
4615;DHT22;2320;51.362;6.946;2022-12-15T09:58:05;-0.70;99.90
4615;DHT22;2320;51.362;6.946;2022-12-15T10:00:45;-0.70;99.90
4615;DHT22;2320;51.362;6.946;2022-12-15T10:03:37;-0.90;99.90
4615;DHT22;2320;51.362;6.946;2022-12-15T10:06:05;-1.10;99.90
4615;DHT22;2320;51.362;6.946;2022-12-15T10:08:33;-0.80;99.90
4615;DHT22;2320;51.362;6.946;2022-12-15T10:13:29;-0.60;99.90
4615;DHT22;2320;51.362;6.946;2022-12-15T10:15:59;-0.40;99.90
4615;DHT22;2320;51.362;6.946;2022-12-15T10:18:38;-0.20;99.90
4615;DHT22;2320;51.362;6.946;2022-12-15T10:21:04;-0.20;99.90
4615;DHT22;2320;51.362;6.946;2022-12-15T10:23:31;-0.30;99.90
4615;DHT22;2320;51.362;6.946;2022-12-15T10:26:14;-0.20;99.90
4615;DHT22;2320;51.362;6.946;2022-12-15T10:31:12;-0.20;99.90
4615;DHT22;2320;51.362;6.946;2022-12-15T10:33:41;-0.40;99.90
4615;DHT22;2320;51.362;6.946;2022-12-15T10:36:11;-0.50;99.90
4615;DHT22;2320;51.362;6.946;2022-12-15T10:38:37;-0.40;99.90
4615;DHT22;2320;51.362;6.946;2022-12-15T10:41:08;-0.40;99.90
4615;DHT22;2320;51.362;6.946;2022-12-15T10:43:36;-0.40;99.90
4615;DHT22;2320;51.362;6.946;2022-12-15T10:48:33;-0.30;99.90
4615;DHT22;2320;51.362;6.946;2022-12-15T10:51:07;-0.30;99.90
4615;DHT22;2320;51.362;6.946;2022-12-15T10:53:42;-0.30;99.90
4615;DHT22;2320;51.362;6.946;2022-12-15T10:56:12;-0.30;99.90
4615;DHT22;2320;51.362;6.946;2022-12-15T10:58:48;-0.50;99.90
4615;DHT22;2320;51.362;6.946;2022-12-15T11:01:16;-0.60;99.90
4615;DHT22;2320;51.362;6.946;2022-12-15T11:03:42;-0.50;99.90
4615;DHT22;2320;51.362;6.946;2022-12-15T11:06:09;-0.50;99.90
4615;DHT22;2320;51.362;6.946;2022-12-15T11:08:38;-0.50;99.90
4615;DHT22;2320;51.362;6.946;2022-12-15T11:11:08;-0.30;99.90
4615;DHT22;2320;51.362;6.946;2022-12-15T11:14:10;-0.20;99.90
4615;DHT22;2320;51.362;6.946;2022-12-15T11:16:40;-0.30;99.90
4615;DHT22;2320;51.362;6.946;2022-12-15T11:19:10;-0.30;99.90
4615;DHT22;2320;51.362;6.946;2022-12-15T11:21:41;-0.30;99.90
4615;DHT22;2320;51.362;6.946;2022-12-15T11:26:52;-0.30;99.90
4615;DHT22;2320;51.362;6.946;2022-12-15T11:31:48;-0.40;99.90
4615;DHT22;2320;51.362;6.946;2022-12-15T11:34:15;-0.40;99.90
4615;DHT22;2320;51.362;6.946;2022-12-15T11:39:12;-0.40;99.90
4615;DHT22;2320;51.362;6.946;2022-12-15T11:46:41;-0.30;99.90
4615;DHT22;2320;51.362;6.946;2022-12-15T11:49:32;-0.30;99.90
4615;DHT22;2320;51.362;6.946;2022-12-15T11:54:58;-0.30;99.90
4615;DHT22;2320;51.362;6.946;2022-12-15T12:07:44;-0.20;99.90
4615;DHT22;2320;51.362;6.946;2022-12-15T12:12:51;-0.30;99.90
4615;DHT22;2320;51.362;6.946;2022-12-15T12:18:14;-0.40;99.90
4615;DHT22;2320;51.362;6.946;2022-12-15T12:21:02;-0.30;99.90
4615;DHT22;2320;51.362;6.946;2022-12-15T12:23:30;-0.30;99.90
4615;DHT22;2320;51.362;6.946;2022-12-15T12:26:11;-0.30;99.90
4615;DHT22;2320;51.362;6.946;2022-12-15T12:28:48;-0.40;99.90
4615;DHT22;2320;51.362;6.946;2022-12-15T12:31:20;-0.20;99.90
4615;DHT22;2320;51.362;6.946;2022-12-15T12:33:47;-0.30;99.90
4615;DHT22;2320;51.362;6.946;2022-12-15T12:36:14;-0.10;99.90
4615;DHT22;2320;51.362;6.946;2022-12-15T12:38:46;-0.10;99.90
4615;DHT22;2320;51.362;6.946;2022-12-15T12:43:40;-0.20;99.90
4615;DHT22;2320;51.362;6.946;2022-12-15T12:46:12;-0.30;99.90
4615;DHT22;2320;51.362;6.946;2022-12-15T12:48:40;-0.20;99.90
4615;DHT22;2320;51.362;6.946;2022-12-15T12:51:25;-0.20;99.90
4615;DHT22;2320;51.362;6.946;2022-12-15T12:53:52;-0.20;99.90
4615;DHT22;2320;51.362;6.946;2022-12-15T12:56:28;-0.30;99.90
4615;DHT22;2320;51.362;6.946;2022-12-15T12:58:53;-0.20;99.90
4615;DHT22;2320;51.362;6.946;2022-12-15T13:01:24;-0.20;99.90
4615;DHT22;2320;51.362;6.946;2022-12-15T13:04:04;-0.30;99.90
4615;DHT22;2320;51.362;6.946;2022-12-15T13:09:19;-0.30;99.90
4615;DHT22;2320;51.362;6.946;2022-12-15T13:14:17;-0.30;99.90
4615;DHT22;2320;51.362;6.946;2022-12-15T13:16:44;-0.20;99.90
4615;DHT22;2320;51.362;6.946;2022-12-15T13:19:10;-0.10;99.90
4615;DHT22;2320;51.362;6.946;2022-12-15T13:26:42;-0.10;99.90
4615;DHT22;2320;51.362;6.946;2022-12-15T13:29:08;-0.20;99.90
4615;DHT22;2320;51.362;6.946;2022-12-15T13:31:37;-0.20;99.90
4615;DHT22;2320;51.362;6.946;2022-12-15T13:34:10;-0.10;99.90
4615;DHT22;2320;51.362;6.946;2022-12-15T13:44:11;-0.10;99.90
4615;DHT22;2320;51.362;6.946;2022-12-15T13:46:39;-0.10;99.90
4615;DHT22;2320;51.362;6.946;2022-12-15T13:49:12;-0.20;99.90
4615;DHT22;2320;51.362;6.946;2022-12-15T13:51:42;-0.10;99.90
4615;DHT22;2320;51.362;6.946;2022-12-15T13:54:18;-0.20;99.90
4615;DHT22;2320;51.362;6.946;2022-12-15T13:57:05;-0.20;99.90
4615;DHT22;2320;51.362;6.946;2022-12-15T14:07:34;-0.40;99.90
4615;DHT22;2320;51.362;6.946;2022-12-15T14:09:59;-0.30;99.90
4615;DHT22;2320;51.362;6.946;2022-12-15T14:12:25;-0.40;99.90
4615;DHT22;2320;51.362;6.946;2022-12-15T14:14:51;-0.30;99.90
4615;DHT22;2320;51.362;6.946;2022-12-15T14:17:17;-0.30;99.90
4615;DHT22;2320;51.362;6.946;2022-12-15T14:19:44;-0.30;99.90
4615;DHT22;2320;51.362;6.946;2022-12-15T14:24:47;-0.20;99.90
4615;DHT22;2320;51.362;6.946;2022-12-15T14:27:25;-0.40;99.90
4615;DHT22;2320;51.362;6.946;2022-12-15T14:32:35;-0.40;99.90
4615;DHT22;2320;51.362;6.946;2022-12-15T14:35:01;-0.50;99.90
4615;DHT22;2320;51.362;6.946;2022-12-15T14:37:27;-0.70;99.90
4615;DHT22;2320;51.362;6.946;2022-12-15T14:39:53;-0.70;99.90
4615;DHT22;2320;51.362;6.946;2022-12-15T14:42:20;-0.70;99.90
4615;DHT22;2320;51.362;6.946;2022-12-15T14:44:47;-0.70;99.90
4615;DHT22;2320;51.362;6.946;2022-12-15T14:47:23;-0.70;99.90
4615;DHT22;2320;51.362;6.946;2022-12-15T14:49:51;-0.70;99.90
4615;DHT22;2320;51.362;6.946;2022-12-15T14:52:27;-0.70;99.90
4615;DHT22;2320;51.362;6.946;2022-12-15T14:54:56;-0.80;99.90
4615;DHT22;2320;51.362;6.946;2022-12-15T14:57:26;-1.00;99.90
4615;DHT22;2320;51.362;6.946;2022-12-15T14:59:52;-1.10;99.90
4615;DHT22;2320;51.362;6.946;2022-12-15T15:02:22;-1.00;99.90
4615;DHT22;2320;51.362;6.946;2022-12-15T15:05:03;-1.10;99.90
4615;DHT22;2320;51.362;6.946;2022-12-15T15:07:32;-1.20;99.90
4615;DHT22;2320;51.362;6.946;2022-12-15T15:09:58;-1.20;99.90
4615;DHT22;2320;51.362;6.946;2022-12-15T15:12:25;-1.20;99.90
4615;DHT22;2320;51.362;6.946;2022-12-15T15:15:02;-1.30;99.90
4615;DHT22;2320;51.362;6.946;2022-12-15T15:17:35;-1.30;99.90
4615;DHT22;2320;51.362;6.946;2022-12-15T15:20:05;-1.40;99.90
4615;DHT22;2320;51.362;6.946;2022-12-15T15:22:36;-1.40;99.90
4615;DHT22;2320;51.362;6.946;2022-12-15T15:25:17;-1.30;99.90
4615;DHT22;2320;51.362;6.946;2022-12-15T15:27:43;-1.40;99.90
4615;DHT22;2320;51.362;6.946;2022-12-15T15:30:19;-1.70;99.90
4615;DHT22;2320;51.362;6.946;2022-12-15T15:32:52;-1.80;99.90
4615;DHT22;2320;51.362;6.946;2022-12-15T15:35:18;-1.80;99.90
4615;DHT22;2320;51.362;6.946;2022-12-15T15:37:44;-1.70;99.90
4615;DHT22;2320;51.362;6.946;2022-12-15T15:40:11;-1.80;99.90
4615;DHT22;2320;51.362;6.946;2022-12-15T15:42:37;-1.90;99.90
4615;DHT22;2320;51.362;6.946;2022-12-15T15:45:02;-2.00;99.90
4615;DHT22;2320;51.362;6.946;2022-12-15T15:47:28;-2.20;99.90
4615;DHT22;2320;51.362;6.946;2022-12-15T15:49:53;-2.20;99.90
4615;DHT22;2320;51.362;6.946;2022-12-15T15:52:19;-2.30;99.90
4615;DHT22;2320;51.362;6.946;2022-12-15T15:54:46;-2.40;99.90
4615;DHT22;2320;51.362;6.946;2022-12-15T15:57:15;-2.40;99.90
4615;DHT22;2320;51.362;6.946;2022-12-15T15:59:41;-2.50;99.90
4615;DHT22;2320;51.362;6.946;2022-12-15T16:02:11;-2.60;99.90
4615;DHT22;2320;51.362;6.946;2022-12-15T16:04:40;-2.60;99.90
4615;DHT22;2320;51.362;6.946;2022-12-15T16:07:20;-2.50;99.90
4615;DHT22;2320;51.362;6.946;2022-12-15T16:09:46;-2.60;99.90
4615;DHT22;2320;51.362;6.946;2022-12-15T16:12:24;-2.70;99.90
4615;DHT22;2320;51.362;6.946;2022-12-15T16:14:51;-2.80;99.90
4615;DHT22;2320;51.362;6.946;2022-12-15T16:17:17;-2.80;99.90
4615;DHT22;2320;51.362;6.946;2022-12-15T16:19:43;-2.70;99.90
4615;DHT22;2320;51.362;6.946;2022-12-15T16:22:12;-2.70;99.90
4615;DHT22;2320;51.362;6.946;2022-12-15T16:24:39;-2.70;99.90
4615;DHT22;2320;51.362;6.946;2022-12-15T16:27:04;-2.80;99.90
4615;DHT22;2320;51.362;6.946;2022-12-15T16:29:30;-2.70;99.90
4615;DHT22;2320;51.362;6.946;2022-12-15T16:31:55;-2.80;99.90
4615;DHT22;2320;51.362;6.946;2022-12-15T16:34:21;-2.80;99.90
4615;DHT22;2320;51.362;6.946;2022-12-15T16:36:49;-2.70;99.90
4615;DHT22;2320;51.362;6.946;2022-12-15T16:39:25;-2.70;99.90
4615;DHT22;2320;51.362;6.946;2022-12-15T16:41:51;-2.80;99.90
4615;DHT22;2320;51.362;6.946;2022-12-15T16:44:17;-3.00;99.90
4615;DHT22;2320;51.362;6.946;2022-12-15T16:46:43;-3.00;99.90
4615;DHT22;2320;51.362;6.946;2022-12-15T16:49:08;-3.10;99.90
4615;DHT22;2320;51.362;6.946;2022-12-15T16:51:37;-3.00;99.90
4615;DHT22;2320;51.362;6.946;2022-12-15T16:54:03;-3.00;99.90
4615;DHT22;2320;51.362;6.946;2022-12-15T16:56:29;-3.00;99.90
4615;DHT22;2320;51.362;6.946;2022-12-15T16:58:54;-2.90;99.90
4615;DHT22;2320;51.362;6.946;2022-12-15T17:01:21;-3.10;99.90
4615;DHT22;2320;51.362;6.946;2022-12-15T17:03:46;-3.10;99.90
4615;DHT22;2320;51.362;6.946;2022-12-15T17:06:12;-3.10;99.90
4615;DHT22;2320;51.362;6.946;2022-12-15T17:08:41;-3.20;99.90
4615;DHT22;2320;51.362;6.946;2022-12-15T17:11:14;-3.40;99.90
4615;DHT22;2320;51.362;6.946;2022-12-15T17:13:41;-3.50;99.90
4615;DHT22;2320;51.362;6.946;2022-12-15T17:16:08;-3.20;99.90
4615;DHT22;2320;51.362;6.946;2022-12-15T17:18:35;-3.20;99.90
4615;DHT22;2320;51.362;6.946;2022-12-15T17:21:02;-3.30;99.90
4615;DHT22;2320;51.362;6.946;2022-12-15T17:23:28;-3.30;99.90
4615;DHT22;2320;51.362;6.946;2022-12-15T17:25:54;-3.40;99.90
4615;DHT22;2320;51.362;6.946;2022-12-15T17:28:23;-3.50;99.90
4615;DHT22;2320;51.362;6.946;2022-12-15T17:30:50;-3.50;99.90
4615;DHT22;2320;51.362;6.946;2022-12-15T17:33:20;-3.30;99.90
4615;DHT22;2320;51.362;6.946;2022-12-15T17:35:46;-3.50;99.90
4615;DHT22;2320;51.362;6.946;2022-12-15T17:38:13;-3.50;99.90
4615;DHT22;2320;51.362;6.946;2022-12-15T17:40:41;-3.70;99.90
4615;DHT22;2320;51.362;6.946;2022-12-15T17:43:13;-3.70;99.90
4615;DHT22;2320;51.362;6.946;2022-12-15T17:45:39;-3.70;99.90
4615;DHT22;2320;51.362;6.946;2022-12-15T17:48:04;-3.60;99.90
4615;DHT22;2320;51.362;6.946;2022-12-15T17:50:30;-3.60;99.90